VNKT METAR

Available data for VNKT from the past hour
KATHMANDU INTL A
Metar
VNKT 200850Z 29007KT 230V340 8000 FEW020 BKN100 19/05 Q1019 NOSIG

08:50 UTC

Wind: 290° 7kt

Visibility: 8000 m

Sky: FEW 2000 ft

Temp: 19 deg C / 66.2 deg F

Dewpoint: 5 deg C / 41 deg F

Pressure: 1019 hPa

TAF
TAF VNKT 200500Z 2006/2106 18004KT 6000 FEW020 SCT250 BECMG 2007/2008 28009KT 9999 FEW020 SCT100 BECMG 2013/2014 VRB02KT 6000 FEW015 SCT100 BECMG 2100/2102 00000KT 3000 BR FEW010 PROB40 2101/2103 1500 BR BECMG 2103/2104 12003KT 5000 HZ FEW015 SCT100

WARNING: the data listed  above is for informational purposes only and should be confirmed from official sources. Data presented here on this page are fetched from Aviation weather data from NOAA’s Aviation Digital Data Service.

How to see the Details of METAR Reading.

Click on the Triangle beside of the Word METAR.(Refer to Fig.1)

VNKTmetar